Time,TemperatureF,DewpointF,PressureIn,WindDirection,WindDirectionDegrees,WindSpeedMPH,WindSpeedGustMPH,Humidity,HourlyPrecipIn,Conditions,Clouds,dailyrainin,SoftwareType,DateUTC
2013-01-28 00:00:00,19.6,11.4,29.26,SE,135,0.0,0.0,70,0.00,CLR,,0.00,WeatherDisplay:10.37,2013-01-28 07:00:00,
2013-01-28 08:00:00,22.5,14.8,29.25,SE,135,0.0,0.0,72,0.00,CLR,,0.00,WeatherDisplay:10.37,2013-01-28 15:00:00,
2013-01-28 08:05:00,22.5,14.8,29.25,SE,135,0.0,0.0,72,0.00,CLR,,0.00,WeatherDisplay:10.37,2013-01-28 15:05:00,
2013-01-28 08:10:00,22.5,14.8,29.25,SE,135,0.0,0.0,72,0.00,CLR,,0.00,WeatherDisplay:10.37,2013-01-28 15:10:00,
2013-01-28 08:15:00,22.5,14.8,29.25,SE,135,0.0,0.0,72,0.00,CLR,,0.00,WeatherDisplay:10.37,2013-01-28 15:15:00,
2013-01-28 08:20:00,22.8,15.1,29.25,SE,135,0.0,0.0,72,0.00,CLR,,0.00,WeatherDisplay:10.37,2013-01-28 15:20:00,
2013-01-28 08:25:00,22.5,14.8,29.25,SE,135,0.0,0.0,72,0.00,CLR,,0.00,WeatherDisplay:10.37,2013-01-28 15:25:00,
2013-01-28 08:30:00,22.8,15.1,29.25,SE,135,0.0,0.0,72,0.00,CLR,,0.00,WeatherDisplay:10.37,2013-01-28 15:30:00,
2013-01-28 08:36:00,23.0,15.3,29.25,SE,135,0.0,0.0,72,0.00,CLR,,0.00,WeatherDisplay:10.37,2013-01-28 15:36:00,
2013-01-28 08:41:00,23.2,15.5,29.25,SE,135,0.0,0.0,72,0.00,CLR,,0.00,WeatherDisplay:10.37,2013-01-28 15:41:00,
2013-01-28 08:46:00,23.4,15.7,29.25,SE,135,0.0,0.0,72,0.00,CLR,,0.00,WeatherDisplay:10.37,2013-01-28 15:46:00,
2013-01-28 08:51:00,23.9,16.2,29.25,SE,135,0.0,0.0,72,0.00,CLR,,0.00,WeatherDisplay:10.37,2013-01-28 15:51:00,
2013-01-28 08:56:00,23.9,16.2,29.25,SE,135,0.0,0.0,72,0.00,CLR,,0.00,WeatherDisplay:10.37,2013-01-28 15:56:00,
2013-01-28 09:01:00,24.3,16.5,29.25,SE,135,0.0,0.0,72,0.00,CLR,,0.00,WeatherDisplay:10.37,2013-01-28 16:01:00,
2013-01-28 09:06:00,24.3,16.5,29.25,SE,135,0.0,0.0,72,0.00,CLR,,0.00,WeatherDisplay:10.37,2013-01-28 16:06:00,
2013-01-28 09:11:00,24.6,16.9,29.25,SE,135,0.0,0.0,72,0.00,CLR,,0.00,WeatherDisplay:10.37,2013-01-28 16:11:00,
2013-01-28 09:16:00,24.8,17.1,29.25,SE,135,0.0,0.0,72,0.00,CLR,,0.00,WeatherDisplay:10.37,2013-01-28 16:16:00,
2013-01-28 09:21:00,25.0,16.9,29.25,SE,135,0.0,0.0,71,0.00,CLR,,0.00,WeatherDisplay:10.37,2013-01-28 16:21:00,
2013-01-28 09:26:00,25.3,17.2,29.24,SE,135,0.0,0.0,71,0.00,CLR,,0.00,WeatherDisplay:10.37,2013-01-28 16:26:00,
2013-01-28 09:31:00,25.5,17.4,29.24,SE,135,0.0,0.0,71,0.00,CLR,,0.00,WeatherDisplay:10.37,2013-01-28 16:31:00,
2013-01-28 09:36:00,26.1,17.9,29.24,SE,135,0.0,0.0,71,0.00,CLR,,0.00,WeatherDisplay:10.37,2013-01-28 16:36:00,
2013-01-28 09:41:00,26.2,18.1,29.24,SE,135,0.0,0.0,71,0.00,CLR,,0.00,WeatherDisplay:10.37,2013-01-28 16:41:00,
2013-01-28 09:46:00,26.8,18.6,29.24,SE,135,0.0,0.0,71,0.00,CLR,,0.00,WeatherDisplay:10.37,2013-01-28 16:46:00,
2013-01-28 09:51:00,26.8,18.3,29.24,SE,135,0.0,0.0,70,0.00,CLR,,0.00,WeatherDisplay:10.37,2013-01-28 16:51:00,
2013-01-28 09:56:00,27.5,19.0,29.24,SE,135,0.0,0.0,70,0.00,CLR,,0.00,WeatherDisplay:10.37,2013-01-28 16:56:00,
2013-01-28 10:01:00,27.7,19.2,29.24,SE,135,0.0,0.0,70,0.00,CLR,,0.00,WeatherDisplay:10.37,2013-01-28 17:01:00,
2013-01-28 10:06:00,28.2,19.3,29.25,SE,135,0.0,0.0,69,0.00,CLR,,0.00,WeatherDisplay:10.37,2013-01-28 17:06:00,
2013-01-28 10:11:00,28.4,19.2,29.25,SE,135,0.0,0.0,68,0.00,CLR,,0.00,WeatherDisplay:10.37,2013-01-28 17:11:00,
2013-01-28 10:16:00,28.9,19.7,29.25,SE,135,0.0,0.0,68,0.00,CLR,,0.00,WeatherDisplay:10.37,2013-01-28 17:16:00,
2013-01-28 10:21:00,28.9,19.7,29.25,SE,135,0.0,0.0,68,0.00,CLR,,0.00,WeatherDisplay:10.37,2013-01-28 17:21:00,
2013-01-28 10:26:00,29.7,20.0,29.28,SE,135,0.0,0.0,67,0.00,CLR,,0.00,WeatherDisplay:10.37,2013-01-28 17:26:00,
2013-01-28 10:32:00,29.7,20.0,29.28,SE,135,0.0,0.0,67,0.00,CLR,,0.00,WeatherDisplay:10.37,2013-01-28 17:32:00,
2013-01-28 10:37:00,30.0,20.0,29.28,SE,135,0.0,0.0,66,0.00,CLR,,0.00,WeatherDisplay:10.37,2013-01-28 17:37:00,
2013-01-28 10:42:00,30.2,20.2,29.28,SE,135,0.0,0.0,66,0.00,CLR,,0.00,WeatherDisplay:10.37,2013-01-28 17:42:00,
2013-01-28 10:47:00,30.6,20.5,29.30,SE,135,0.0,0.0,66,0.00,CLR,,0.00,WeatherDisplay:10.37,2013-01-28 17:47:00,
2013-01-28 10:52:00,31.1,20.7,29.30,SE,135,0.0,0.0,65,0.00,CLR,,0.00,WeatherDisplay:10.37,2013-01-28 17:52:00,
2013-01-28 10:57:00,31.8,21.4,29.30,SE,135,0.0,0.0,65,0.00,CLR,,0.00,WeatherDisplay:10.37,2013-01-28 17:57:00,
2013-01-28 11:02:00,32.0,21.6,29.30,SE,135,0.0,0.0,65,0.00,CLR,,0.00,WeatherDisplay:10.37,2013-01-28 18:02:00,
2013-01-28 11:07:00,32.5,22.1,29.31,SE,135,0.0,0.0,65,0.00,CLR,,0.00,WeatherDisplay:10.37,2013-01-28 18:07:00,
2013-01-28 11:12:00,32.7,21.9,29.31,SE,135,0.0,0.0,64,0.00,CLR,,0.00,WeatherDisplay:10.37,2013-01-28 18:12:00,
2013-01-28 11:17:00,32.7,21.9,29.31,SE,135,0.0,0.0,64,0.00,CLR,,0.00,WeatherDisplay:10.37,2013-01-28 18:17:00,
2013-01-28 11:22:00,32.9,21.7,29.31,SE,135,0.0,0.0,63,0.00,CLR,,0.00,WeatherDisplay:10.37,2013-01-28 18:22:00,
2013-01-28 11:27:00,32.9,21.7,29.30,SE,135,0.0,0.0,63,0.00,CLR,,0.00,WeatherDisplay:10.37,2013-01-28 18:27:00,
2013-01-28 11:32:00,32.9,21.7,29.30,SE,135,0.0,0.0,63,0.00,CLR,,0.00,WeatherDisplay:10.37,2013-01-28 18:32:00,
2013-01-28 11:37:00,32.7,21.1,29.30,SE,135,0.0,0.0,62,0.00,CLR,,0.00,WeatherDisplay:10.37,2013-01-28 18:37:00,
2013-01-28 11:42:00,32.7,21.1,29.30,SE,135,0.0,0.0,62,0.00,CLR,,0.00,WeatherDisplay:10.37,2013-01-28 18:42:00,
2013-01-28 11:47:00,32.7,21.1,29.26,SE,135,0.0,0.0,62,0.00,CLR,,0.00,WeatherDisplay:10.37,2013-01-28 18:47:00,
2013-01-28 11:52:00,32.7,21.1,29.26,SE,135,0.0,0.0,62,0.00,CLR,,0.00,WeatherDisplay:10.37,2013-01-28 18:52:00,
2013-01-28 11:57:00,32.4,20.8,29.26,SE,135,0.0,0.0,62,0.00,CLR,,0.00,WeatherDisplay:10.37,2013-01-28 18:57:00,
2013-01-28 12:02:00,32.4,20.8,29.26,SE,135,0.0,0.0,62,0.00,CLR,,0.00,WeatherDisplay:10.37,2013-01-28 19:02:00,
2013-01-28 12:08:00,32.4,20.8,29.24,SE,135,0.0,0.0,62,0.00,CLR,,0.00,WeatherDisplay:10.37,2013-01-28 19:08:00,
2013-01-28 12:13:00,32.7,21.1,29.24,SE,135,0.0,0.0,62,0.00,CLR,,0.00,WeatherDisplay:10.37,2013-01-28 19:13:00,
2013-01-28 12:18:00,32.9,21.3,29.24,SE,135,0.0,0.0,62,0.00,CLR,,0.00,WeatherDisplay:10.37,2013-01-28 19:18:00,
2013-01-28 12:23:00,33.3,21.3,29.24,SE,135,0.0,0.0,61,0.00,CLR,,0.00,WeatherDisplay:10.37,2013-01-28 19:23:00,
2013-01-28 12:28:00,33.3,21.3,29.26,SE,135,0.0,0.0,61,0.00,CLR,,0.00,WeatherDisplay:10.37,2013-01-28 19:28:00,
2013-01-28 12:33:00,33.6,21.6,29.26,SE,135,0.0,0.0,61,0.00,CLR,,0.00,WeatherDisplay:10.37,2013-01-28 19:33:00,
2013-01-28 12:38:00,33.6,21.2,29.26,SE,135,0.0,0.0,60,0.00,CLR,,0.00,WeatherDisplay:10.37,2013-01-28 19:38:00,
2013-01-28 12:43:00,33.4,21.0,29.26,SE,135,0.0,0.0,60,0.00,CLR,,0.00,WeatherDisplay:10.37,2013-01-28 19:43:00,
2013-01-28 12:48:00,33.4,21.0,29.28,SE,135,0.0,0.0,60,0.00,CLR,,0.00,WeatherDisplay:10.37,2013-01-28 19:48:00,
2013-01-28 12:53:00,33.6,21.2,29.28,SE,135,0.0,0.0,60,0.00,CLR,,0.00,WeatherDisplay:10.37,2013-01-28 19:53:00,
2013-01-28 12:58:00,33.6,21.2,29.28,SE,135,0.0,0.0,60,0.00,CLR,,0.00,WeatherDisplay:10.37,2013-01-28 19:58:00,
2013-01-28 13:03:00,33.8,21.4,29.28,SE,135,0.0,0.0,60,0.00,CLR,,0.00,WeatherDisplay:10.37,2013-01-28 20:03:00,
2013-01-28 13:08:00,33.8,21.4,29.24,SE,135,0.0,0.0,60,0.00,CLR,,0.00,WeatherDisplay:10.37,2013-01-28 20:08:00,
2013-01-28 13:13:00,34.2,21.7,29.24,SE,135,0.0,0.0,60,0.00,CLR,,0.00,WeatherDisplay:10.37,2013-01-28 20:13:00,
2013-01-28 13:18:00,34.3,21.9,29.24,SE,135,0.0,0.0,60,0.00,CLR,,0.00,WeatherDisplay:10.37,2013-01-28 20:18:00,
2013-01-28 13:23:00,34.7,22.2,29.24,SE,135,0.0,0.0,60,0.00,CLR,,0.00,WeatherDisplay:10.37,2013-01-28 20:23:00,
2013-01-28 13:28:00,34.9,22.0,29.26,SE,135,0.0,0.0,59,0.00,CLR,,0.00,WeatherDisplay:10.37,2013-01-28 20:28:00,
2013-01-28 13:33:00,34.9,22.0,29.26,SE,135,0.0,0.0,59,0.00,CLR,,0.00,WeatherDisplay:10.37,2013-01-28 20:33:00,
2013-01-28 13:38:00,35.4,22.5,29.26,SE,135,0.0,0.0,59,0.00,CLR,,0.00,WeatherDisplay:10.37,2013-01-28 20:38:00,
2013-01-28 13:43:00,35.8,22.4,29.26,SE,135,0.0,0.0,58,0.00,CLR,,0.00,WeatherDisplay:10.37,2013-01-28 20:43:00,
2013-01-28 13:48:00,36.1,22.8,29.26,SE,135,0.0,0.0,58,0.00,CLR,,0.00,WeatherDisplay:10.37,2013-01-28 20:48:00,
2013-01-28 13:53:00,36.5,23.1,29.26,SE,135,0.0,0.0,58,0.00,CLR,,0.00,WeatherDisplay:10.37,2013-01-28 20:53:00,
2013-01-28 13:58:00,36.9,23.4,29.26,SE,135,0.0,0.0,58,0.00,CLR,,0.00,WeatherDisplay:10.37,2013-01-28 20:58:00,
2013-01-28 14:03:00,36.7,23.3,29.26,SE,135,0.0,0.0,58,0.00,CLR,,0.00,WeatherDisplay:10.37,2013-01-28 21:03:00,
2013-01-28 14:08:00,37.0,23.6,29.25,SE,135,0.0,0.0,58,0.00,CLR,,0.00,WeatherDisplay:10.37,2013-01-28 21:08:00,
2013-01-28 14:13:00,37.0,23.6,29.25,SE,135,0.0,0.0,58,0.00,CLR,,0.00,WeatherDisplay:10.37,2013-01-28 21:13:00,
2013-01-28 14:18:00,37.2,23.8,29.25,SE,135,0.0,0.0,58,0.00,CLR,,0.00,WeatherDisplay:10.37,2013-01-28 21:18:00,
2013-01-28 14:23:00,37.4,23.5,29.25,SE,135,0.0,0.0,57,0.00,CLR,,0.00,WeatherDisplay:10.37,2013-01-28 21:23:00,
2013-01-28 14:28:00,37.6,23.7,29.23,SE,135,0.0,0.0,57,0.00,CLR,,0.00,WeatherDisplay:10.37,2013-01-28 21:28:00,
2013-01-28 14:33:00,37.6,23.7,29.23,SE,135,0.0,0.0,57,0.00,CLR,,0.00,WeatherDisplay:10.37,2013-01-28 21:33:00,
2013-01-28 14:38:00,37.6,23.7,29.23,SE,135,0.0,0.0,57,0.00,CLR,,0.00,WeatherDisplay:10.37,2013-01-28 21:38:00,
2013-01-28 14:43:00,37.2,22.9,29.23,SE,135,0.0,0.0,56,0.00,CLR,,0.00,WeatherDisplay:10.37,2013-01-28 21:43:00,
2013-01-28 14:48:00,37.0,22.8,29.21,SE,135,0.0,0.0,56,0.00,CLR,,0.00,WeatherDisplay:10.37,2013-01-28 21:48:00,
2013-01-28 14:53:00,36.9,22.6,29.21,SE,135,0.0,0.0,56,0.00,CLR,,0.00,WeatherDisplay:10.37,2013-01-28 21:53:00,
2013-01-28 14:58:00,36.3,22.1,29.21,SE,135,0.0,0.0,56,0.00,CLR,,0.00,WeatherDisplay:10.37,2013-01-28 21:58:00,
2013-01-28 15:03:00,36.3,22.1,29.21,SE,135,0.0,0.0,56,0.00,CLR,,0.00,WeatherDisplay:10.37,2013-01-28 22:03:00,
2013-01-28 15:08:00,36.1,21.9,29.18,SE,135,0.0,0.0,56,0.00,CLR,,0.00,WeatherDisplay:10.37,2013-01-28 22:08:00,
2013-01-28 15:13:00,35.8,21.6,29.18,SE,135,0.0,0.0,56,0.00,CLR,,0.00,WeatherDisplay:10.37,2013-01-28 22:13:00,
2013-01-28 15:18:00,35.6,21.4,29.18,SE,135,0.0,0.0,56,0.00,CLR,,0.00,WeatherDisplay:10.37,2013-01-28 22:18:00,
2013-01-28 15:23:00,35.6,21.4,29.18,SE,135,0.0,0.0,56,0.00,CLR,,0.00,WeatherDisplay:10.37,2013-01-28 22:23:00,
2013-01-28 15:28:00,35.6,21.4,29.18,SE,135,0.0,0.0,56,0.00,CLR,,0.00,WeatherDisplay:10.37,2013-01-28 22:28:00,
2013-01-28 15:33:00,35.6,21.4,29.18,SE,135,0.0,0.0,56,0.00,CLR,,0.00,WeatherDisplay:10.37,2013-01-28 22:33:00,
2013-01-28 15:38:00,35.8,21.6,29.18,SE,135,0.0,0.0,56,0.00,CLR,,0.00,WeatherDisplay:10.37,2013-01-28 22:38:00,
2013-01-28 15:43:00,35.8,21.6,29.18,SE,135,0.0,0.0,56,0.00,CLR,,0.00,WeatherDisplay:10.37,2013-01-28 22:43:00,
2013-01-28 15:48:00,35.6,21.4,29.17,SE,135,0.0,0.0,56,0.00,CLR,,0.00,WeatherDisplay:10.37,2013-01-28 22:48:00,
2013-01-28 15:53:00,35.4,21.3,29.17,SE,135,0.0,0.0,56,0.00,CLR,,0.00,WeatherDisplay:10.37,2013-01-28 22:53:00,
2013-01-28 15:58:00,35.4,21.3,29.17,SE,135,0.0,0.0,56,0.00,CLR,,0.00,WeatherDisplay:10.37,2013-01-28 22:58:00,
2013-01-28 16:03:00,35.4,21.3,29.17,SE,135,0.0,0.0,56,0.00,CLR,,0.00,WeatherDisplay:10.37,2013-01-28 23:03:00,
2013-01-28 16:08:00,35.2,21.1,29.18,SE,135,0.0,0.0,56,0.00,CLR,,0.00,WeatherDisplay:10.37,2013-01-28 23:08:00,
2013-01-28 16:13:00,35.4,21.3,29.18,SE,135,0.0,0.0,56,0.00,CLR,,0.00,WeatherDisplay:10.37,2013-01-28 23:13:00,
2013-01-28 16:18:00,35.4,21.3,29.18,SE,135,0.0,0.0,56,0.00,CLR,,0.00,WeatherDisplay:10.37,2013-01-28 23:18:00,
2013-01-28 16:23:00,35.1,20.9,29.18,SE,135,0.0,0.0,56,0.00,CLR,,0.00,WeatherDisplay:10.37,2013-01-28 23:23:00,
2013-01-28 16:28:00,35.1,20.9,29.18,SE,135,0.0,0.0,56,0.00,CLR,,0.00,WeatherDisplay:10.37,2013-01-28 23:28:00,
2013-01-28 16:33:00,34.9,20.8,29.18,SE,135,0.0,0.0,56,0.00,CLR,,0.00,WeatherDisplay:10.37,2013-01-28 23:33:00,
2013-01-28 16:38:00,34.7,20.6,29.18,SE,135,0.0,0.0,56,0.00,CLR,,0.00,WeatherDisplay:10.37,2013-01-28 23:38:00,
2013-01-28 16:43:00,34.0,19.9,29.18,SE,135,0.0,0.0,56,0.00,CLR,,0.00,WeatherDisplay:10.37,2013-01-28 23:43:00,
2013-01-28 16:48:00,33.6,19.6,29.16,SE,135,0.0,0.0,56,0.00,CLR,,0.00,WeatherDisplay:10.37,2013-01-28 23:48:00,
2013-01-28 16:53:00,33.3,19.2,29.16,SE,135,0.0,0.0,56,0.00,CLR,,0.00,WeatherDisplay:10.37,2013-01-28 23:53:00,
2013-01-28 16:58:00,32.9,19.3,29.16,SE,135,0.0,0.0,57,0.00,CLR,,0.00,WeatherDisplay:10.37,2013-01-28 23:58:00,
2013-01-28 17:03:00,32.7,19.1,29.16,SE,135,0.0,0.0,57,0.00,CLR,,0.00,WeatherDisplay:10.37,2013-01-29 00:03:00,
2013-01-28 17:08:00,32.2,18.6,29.18,SE,135,0.0,0.0,57,0.00,CLR,,0.00,WeatherDisplay:10.37,2013-01-29 00:08:00,
2013-01-28 17:13:00,31.8,18.3,29.18,SE,135,0.0,0.0,57,0.00,CLR,,0.00,WeatherDisplay:10.37,2013-01-29 00:13:00,
2013-01-28 17:18:00,31.5,18.0,29.18,SE,135,0.0,0.0,57,0.00,CLR,,0.00,WeatherDisplay:10.37,2013-01-29 00:18:00,
2013-01-28 17:23:00,31.1,17.6,29.18,SE,135,0.0,0.0,57,0.00,CLR,,0.00,WeatherDisplay:10.37,2013-01-29 00:23:00,
2013-01-28 17:28:00,30.4,16.9,29.17,SE,135,0.0,0.0,57,0.00,CLR,,0.00,WeatherDisplay:10.37,2013-01-29 00:28:00,
2013-01-28 17:33:00,30.0,17.0,29.17,SE,135,0.0,0.0,58,0.00,CLR,,0.00,WeatherDisplay:10.37,2013-01-29 00:33:00,
2013-01-28 17:38:00,30.0,17.0,29.17,SE,135,0.0,0.0,58,0.00,CLR,,0.00,WeatherDisplay:10.37,2013-01-29 00:38:00,
2013-01-28 17:43:00,29.7,16.7,29.17,SE,135,0.0,0.0,58,0.00,CLR,,0.00,WeatherDisplay:10.37,2013-01-29 00:43:00,
2013-01-28 17:48:00,29.3,16.3,29.17,SE,135,0.0,0.0,58,0.00,CLR,,0.00,WeatherDisplay:10.37,2013-01-29 00:48:00,
2013-01-28 17:53:00,28.9,16.4,29.17,SE,135,0.0,0.0,59,0.00,CLR,,0.00,WeatherDisplay:10.37,2013-01-29 00:53:00,
2013-01-28 17:58:00,28.9,16.4,29.17,SE,135,0.0,0.0,59,0.00,CLR,,0.00,WeatherDisplay:10.37,2013-01-29 00:58:00,
2013-01-28 18:03:00,28.4,15.9,29.17,SE,135,0.0,0.0,59,0.00,CLR,,0.00,WeatherDisplay:10.37,2013-01-29 01:03:00,
2013-01-28 18:08:00,28.2,15.7,29.16,SE,135,0.0,0.0,59,0.00,CLR,,0.00,WeatherDisplay:10.37,2013-01-29 01:08:00,
2013-01-28 18:13:00,28.2,15.7,29.16,SE,135,0.0,0.0,59,0.00,CLR,,0.00,WeatherDisplay:10.37,2013-01-29 01:13:00,
2013-01-28 18:18:00,27.9,15.4,29.16,SE,135,0.0,0.0,59,0.00,CLR,,0.00,WeatherDisplay:10.37,2013-01-29 01:18:00,
2013-01-28 18:23:00,27.7,15.2,29.16,SE,135,0.0,0.0,59,0.00,CLR,,0.00,WeatherDisplay:10.37,2013-01-29 01:23:00,
2013-01-28 18:28:00,27.7,15.2,29.16,SE,135,0.0,0.0,59,0.00,CLR,,0.00,WeatherDisplay:10.37,2013-01-29 01:28:00,
2013-01-28 18:33:00,27.5,15.0,29.16,SE,135,0.0,0.0,59,0.00,CLR,,0.00,WeatherDisplay:10.37,2013-01-29 01:33:00,
2013-01-28 18:38:00,27.5,15.4,29.16,SE,135,0.0,0.0,60,0.00,CLR,,0.00,WeatherDisplay:10.37,2013-01-29 01:38:00,
2013-01-28 18:43:00,27.1,15.1,29.16,SE,135,0.0,0.0,60,0.00,CLR,,0.00,WeatherDisplay:10.37,2013-01-29 01:43:00,
2013-01-28 18:48:00,27.0,14.9,29.14,SE,135,0.0,0.0,60,0.00,CLR,,0.00,WeatherDisplay:10.37,2013-01-29 01:48:00,
2013-01-28 18:53:00,26.8,14.7,29.14,SE,135,0.0,0.0,60,0.00,CLR,,0.00,WeatherDisplay:10.37,2013-01-29 01:53:00,
2013-01-28 18:58:00,26.8,14.7,29.14,SE,135,0.0,0.0,60,0.00,CLR,,0.00,WeatherDisplay:10.37,2013-01-29 01:58:00,
2013-01-28 19:03:00,26.8,14.7,29.14,SE,135,0.0,0.0,60,0.00,CLR,,0.00,WeatherDisplay:10.37,2013-01-29 02:03:00,
2013-01-28 19:08:00,26.4,14.4,29.14,SE,135,0.0,0.0,60,0.00,CLR,,0.00,WeatherDisplay:10.37,2013-01-29 02:08:00,
2013-01-28 19:13:00,26.2,14.2,29.14,SE,135,0.0,0.0,60,0.00,CLR,,0.00,WeatherDisplay:10.37,2013-01-29 02:13:00,
2013-01-28 19:18:00,26.2,14.2,29.14,SE,135,0.0,0.0,60,0.00,CLR,,0.00,WeatherDisplay:10.37,2013-01-29 02:18:00,
2013-01-28 19:23:00,26.1,14.1,29.14,SE,135,0.0,0.0,60,0.00,CLR,,0.00,WeatherDisplay:10.37,2013-01-29 02:23:00,
2013-01-28 19:28:00,26.1,14.1,29.14,SE,135,0.0,0.0,60,0.00,CLR,,0.00,WeatherDisplay:10.37,2013-01-29 02:28:00,
2013-01-28 19:33:00,26.1,14.1,29.14,SE,135,0.0,0.0,60,0.00,CLR,,0.00,WeatherDisplay:10.37,2013-01-29 02:33:00,
2013-01-28 19:38:00,26.1,14.4,29.14,SE,135,0.0,0.0,61,0.00,CLR,,0.00,WeatherDisplay:10.37,2013-01-29 02:38:00,
2013-01-28 19:43:00,25.7,14.1,29.14,SE,135,0.0,0.0,61,0.00,CLR,,0.00,WeatherDisplay:10.37,2013-01-29 02:43:00,
2013-01-28 19:48:00,25.7,14.1,29.14,SE,135,0.0,0.0,61,0.00,CLR,,0.00,WeatherDisplay:10.37,2013-01-29 02:48:00,
2013-01-28 19:53:00,25.5,13.9,29.14,SE,135,0.0,0.0,61,0.00,CLR,,0.00,WeatherDisplay:10.37,2013-01-29 02:53:00,
2013-01-28 19:58:00,25.7,14.1,29.14,SE,135,0.0,0.0,61,0.00,CLR,,0.00,WeatherDisplay:10.37,2013-01-29 02:58:00,
2013-01-28 20:03:00,25.5,13.9,29.14,SE,135,0.0,0.0,61,0.00,CLR,,0.00,WeatherDisplay:10.37,2013-01-29 03:03:00,
2013-01-28 20:08:00,25.7,14.1,29.15,SE,135,0.0,0.0,61,0.00,CLR,,0.00,WeatherDisplay:10.37,2013-01-29 03:08:00,
2013-01-28 20:13:00,25.7,14.1,29.15,SE,135,0.0,0.0,61,0.00,CLR,,0.00,WeatherDisplay:10.37,2013-01-29 03:13:00,
2013-01-28 20:18:00,25.5,13.9,29.15,SE,135,0.0,0.0,61,0.00,CLR,,0.00,WeatherDisplay:10.37,2013-01-29 03:18:00,
2013-01-28 20:23:00,25.5,13.9,29.15,SE,135,0.0,0.0,61,0.00,CLR,,0.00,WeatherDisplay:10.37,2013-01-29 03:23:00,
2013-01-28 20:28:00,25.5,13.9,29.14,SE,135,0.0,0.0,61,0.00,CLR,,0.00,WeatherDisplay:10.37,2013-01-29 03:28:00,
2013-01-28 20:33:00,25.3,13.8,29.14,SE,135,0.0,0.0,61,0.00,CLR,,0.00,WeatherDisplay:10.37,2013-01-29 03:33:00,
2013-01-28 20:38:00,25.3,13.8,29.14,SE,135,0.0,0.0,61,0.00,CLR,,0.00,WeatherDisplay:10.37,2013-01-29 03:38:00,
2013-01-28 20:43:00,25.5,14.3,29.14,SE,135,0.0,0.0,62,0.00,CLR,,0.00,WeatherDisplay:10.37,2013-01-29 03:43:00,
2013-01-28 20:48:00,25.7,14.5,29.14,SE,135,0.0,0.0,62,0.00,CLR,,0.00,WeatherDisplay:10.37,2013-01-29 03:48:00,
2013-01-28 20:53:00,25.5,14.3,29.14,SE,135,0.0,0.0,62,0.00,CLR,,0.00,WeatherDisplay:10.37,2013-01-29 03:53:00,
2013-01-28 20:58:00,25.5,14.3,29.14,SE,135,0.0,0.0,62,0.00,CLR,,0.00,WeatherDisplay:10.37,2013-01-29 03:58:00,
2013-01-28 21:04:00,25.5,14.3,29.14,SE,135,0.0,0.0,62,0.00,CLR,,0.00,WeatherDisplay:10.37,2013-01-29 04:04:00,
2013-01-28 21:09:00,25.5,14.3,29.14,SE,135,0.0,0.0,62,0.00,CLR,,0.00,WeatherDisplay:10.37,2013-01-29 04:09:00,
2013-01-28 21:14:00,25.5,14.3,29.14,SE,135,0.0,0.0,62,0.00,CLR,,0.00,WeatherDisplay:10.37,2013-01-29 04:14:00,
2013-01-28 21:19:00,25.3,14.1,29.14,SE,135,0.0,0.0,62,0.00,CLR,,0.00,WeatherDisplay:10.37,2013-01-29 04:19:00,
2013-01-28 21:24:00,25.3,14.1,29.14,SE,135,0.0,0.0,62,0.00,CLR,,0.00,WeatherDisplay:10.37,2013-01-29 04:24:00,
2013-01-28 21:29:00,25.3,14.5,29.14,SE,135,0.0,0.0,63,0.00,CLR,,0.00,WeatherDisplay:10.37,2013-01-29 04:29:00,
2013-01-28 21:34:00,25.3,14.5,29.14,SE,135,0.0,0.0,63,0.00,CLR,,0.00,WeatherDisplay:10.37,2013-01-29 04:34:00,
2013-01-28 21:39:00,25.3,14.5,29.14,SE,135,0.0,0.0,63,0.00,CLR,,0.00,WeatherDisplay:10.37,2013-01-29 04:39:00,
2013-01-28 21:44:00,25.3,14.5,29.14,SE,135,0.0,0.0,63,0.00,CLR,,0.00,WeatherDisplay:10.37,2013-01-29 04:44:00,
2013-01-28 23:56:00,24.6,14.2,29.13,SE,135,0.0,0.0,64,0.00,CLR,,0.00,WeatherDisplay:10.37,2013-01-29 06:56:00,
2013-01-28 23:57:00,24.6,14.2,29.13,SE,135,0.0,0.0,64,0.00,CLR,,0.00,WeatherDisplay:10.37,2013-01-29 06:57:00,
2013-01-28 23:58:00,24.6,14.2,29.13,SE,135,0.0,0.0,64,0.00,CLR,,0.00,WeatherDisplay:10.37,2013-01-29 06:58:00,